»·PEaware :: SWA385 KLAS-KSJC

SWA385 :: KLAS-KSJC

FLIGHT INFORMATION

Flight Status: Arrived
Operator:
Southwest Airlines
More flights by this operator :: More flights under this callsign
Pilot: Andrew C. (28419)
Aircraft: BOEING 737-800
(B738)
More flights by this aircraft type
Origin: KLAS McCarran Intl
United States
Destination: KSJC Mineta San Jose Intl
United States
More flights between these airports :: More routes between these airports
Route: SHEAD1 KENNO RUSME RAZRR4
File this flight plan on PilotEdge
Remarks: RMK / SIMBRIEF
Altitude:
(Current/Filed)
36,000ft
Speed:
(Current/Filed)
458kts
Departed: 30-Jul-20 09:09 PM
Arrived: 30-Jul-20 10:15 PM
Distance/Time
Traveled:
335nm/1:06
Distance/Time
To Go:
Arrived

Flight Plot

Page will automatically refresh every two minutes.


Map Options




Map Legend


Flown Route
Filed Route
Departure Airport
Arrival Airport
Navaid (VOR, NDB)
Fix

Horizontal Profiles

Position Reports

Time Latitude Longitude Heading Altitude Ground
Speed
30-Jul-20 20:42 36.079787 -115.145847 335 2101ft 0kts
30-Jul-20 20:43 36.079787 -115.145847 335 2101ft 0kts
30-Jul-20 20:44 36.079787 -115.145847 335 2101ft 0kts
30-Jul-20 20:45 36.079787 -115.145847 335 2100ft 0kts
30-Jul-20 20:46 36.079787 -115.145847 335 2100ft 0kts
30-Jul-20 20:47 36.079787 -115.145847 335 2100ft 0kts
30-Jul-20 20:48 36.079787 -115.145847 335 2100ft 0kts
30-Jul-20 20:49 36.079787 -115.145847 335 2100ft 0kts
30-Jul-20 20:50 36.079787 -115.145847 335 2100ft 0kts
30-Jul-20 20:51 36.079787 -115.145847 335 2100ft 0kts
30-Jul-20 20:52 36.079787 -115.145847 335 2100ft 0kts
30-Jul-20 20:53 36.079787 -115.145847 335 2100ft 0kts
30-Jul-20 20:54 36.079787 -115.145847 335 2100ft 0kts
30-Jul-20 20:55 36.079787 -115.145847 335 2100ft 0kts
30-Jul-20 20:56 36.079787 -115.145847 335 2100ft 0kts
30-Jul-20 20:57 36.079787 -115.145847 335 2100ft 0kts
30-Jul-20 20:58 36.079524 -115.145700 335 2100ft 0kts
30-Jul-20 20:59 36.079325 -115.145114 245 2098ft 2kts
30-Jul-20 21:00 36.079715 -115.144843 178 2097ft 0kts
30-Jul-20 21:01 36.079715 -115.144843 178 2097ft 0kts
30-Jul-20 21:02 36.079715 -115.144843 178 2097ft 0kts
30-Jul-20 21:03 36.079191 -115.144822 179 2098ft 10kts
30-Jul-20 21:04 36.078342 -115.139690 91 2081ft 25kts
30-Jul-20 21:06 36.078307 -115.129791 88 2054ft 32kts
30-Jul-20 21:07 36.077510 -115.121521 135 2040ft 8kts
30-Jul-20 21:08 36.076807 -115.121206 177 2041ft 14kts
30-Jul-20 21:09 36.076437 -115.131391 270 2063ft 126kts
30-Jul-20 21:10 36.076077 -115.192961 271 3705ft 214kts
30-Jul-20 21:11 36.049022 -115.268076 209 5541ft 279kts
30-Jul-20 21:12 35.974479 -115.302174 216 7924ft 290kts
30-Jul-20 21:13 35.916102 -115.368099 227 9089ft 282kts
30-Jul-20 21:14 35.885986 -115.460786 268 10648ft 333kts
30-Jul-20 21:15 35.889013 -115.578708 270 11088ft 342kts
30-Jul-20 21:16 35.891317 -115.697086 269 11987ft 350kts
30-Jul-20 21:17 35.893352 -115.819180 269 14550ft 362kts
30-Jul-20 21:18 35.899686 -115.944531 284 17016ft 377kts
30-Jul-20 21:19 35.963368 -116.048723 314 19389ft 393kts
30-Jul-20 21:20 36.043841 -116.141388 315 21640ft 402kts
30-Jul-20 21:21 36.126406 -116.236549 315 23680ft 411kts
30-Jul-20 21:22 36.210616 -116.333906 315 25588ft 418kts
30-Jul-20 21:23 36.296016 -116.432927 314 27324ft 425kts
30-Jul-20 21:23 36.368151 -116.516789 314 28639ft 430kts
30-Jul-20 21:25 36.470536 -116.636396 313 30332ft 437kts
30-Jul-20 21:26 36.560526 -116.736690 320 32059ft 436kts
30-Jul-20 21:26 36.643993 -116.806095 323 33441ft 433kts
30-Jul-20 21:28 36.762167 -116.897888 323 35220ft 426kts
30-Jul-20 21:28 36.845688 -116.961861 323 36068ft 425kts
30-Jul-20 21:29 36.945752 -117.038372 323 36090ft 419kts
30-Jul-20 21:30 37.045169 -117.114582 323 36098ft 420kts
30-Jul-20 21:31 37.144801 -117.191152 323 36106ft 420kts
30-Jul-20 21:32 37.244131 -117.267701 323 36155ft 420kts
30-Jul-20 21:33 37.337563 -117.353331 315 36182ft 415kts
30-Jul-20 21:34 37.425337 -117.446316 314 36183ft 414kts
30-Jul-20 21:35 37.482592 -117.565047 279 36182ft 396kts
30-Jul-20 21:36 37.480368 -117.701845 263 36183ft 393kts
30-Jul-20 21:37 37.469370 -117.837975 263 36183ft 391kts
30-Jul-20 21:38 37.458456 -117.974253 263 36170ft 392kts
30-Jul-20 21:39 37.447456 -118.110412 263 36156ft 392kts
30-Jul-20 21:40 37.436300 -118.246771 263 36155ft 392kts
30-Jul-20 21:41 37.425009 -118.382781 263 36155ft 393kts
30-Jul-20 21:42 37.413529 -118.519383 263 36155ft 393kts
30-Jul-20 21:43 37.401890 -118.655819 262 36156ft 393kts
30-Jul-20 21:44 37.389429 -118.792561 260 36155ft 393kts
30-Jul-20 21:45 37.370643 -118.927468 259 36147ft 393kts
30-Jul-20 21:46 37.352019 -119.063209 259 36137ft 394kts
30-Jul-20 21:47 37.333533 -119.198673 259 36137ft 394kts
30-Jul-20 21:48 37.315002 -119.333734 259 36137ft 391kts
30-Jul-20 21:49 37.296329 -119.468630 259 35569ft 393kts
30-Jul-20 21:50 37.277589 -119.602901 259 34558ft 392kts
30-Jul-20 21:51 37.258284 -119.739717 258 31962ft 402kts
30-Jul-20 21:52 37.238916 -119.876018 258 29403ft 392kts
30-Jul-20 21:53 37.221493 -120.007417 259 28072ft 375kts
30-Jul-20 21:54 37.207554 -120.138198 260 26289ft 377kts
30-Jul-20 21:55 37.193837 -120.267083 260 23965ft 371kts
30-Jul-20 21:56 37.180203 -120.393799 260 21921ft 358kts
30-Jul-20 21:57 37.166226 -120.518425 260 21962ft 364kts
30-Jul-20 21:58 37.152560 -120.641023 260 20112ft 352kts
30-Jul-20 21:59 37.138989 -120.761535 259 18039ft 347kts
30-Jul-20 22:00 37.125704 -120.880427 259 16012ft 342kts
30-Jul-20 22:01 37.112965 -120.996885 260 14063ft 335kts
30-Jul-20 22:02 37.101941 -121.111853 265 12192ft 330kts
30-Jul-20 22:03 37.111975 -121.224897 277 10516ft 322kts
30-Jul-20 22:04 37.124074 -121.329032 276 9760ft 291kts
30-Jul-20 22:05 37.134209 -121.429732 275 8312ft 290kts
30-Jul-20 22:06 37.144162 -121.529749 275 6904ft 287kts
30-Jul-20 22:07 37.156789 -121.627030 272 5519ft 280kts
30-Jul-20 22:08 37.171392 -121.714829 297 4490ft 217kts
30-Jul-20 22:09 37.208846 -121.761816 316 3592ft 175kts
30-Jul-20 22:10 37.245230 -121.801550 316 2900ft 170kts
30-Jul-20 22:11 37.281579 -121.841227 316 2032ft 173kts
30-Jul-20 22:12 37.315078 -121.877817 317 1154ft 152kts
30-Jul-20 22:13 37.346631 -121.912371 318 339ft 148kts
30-Jul-20 22:14 37.368269 -121.936032 322 53ft 14kts
30-Jul-20 22:15 37.370750 -121.933292 79 53ft 11kts
30-Jul-20 22:16 37.369155 -121.931120 138 53ft 8kts
30-Jul-20 22:17 37.365540 -121.927138 138 53ft 15kts
30-Jul-20 22:18 37.364875 -121.925608 74 53ft 2kts

Navigation Log

Ident Type
Flight plan parsing failed, navigation log unavailable